Time;durP1;ratioP1;P1;durP2;ratioP2;P2;SDS_P1;SDS_P2;PMS_P1;PMS_P2;Temp;Humidity;BMP_temperature;BMP_pressure;BME280_temperature;BME280_humidity;BME280_pressure;Samples;Min_cycle;Max_cycle;Signal;HPM_P1;HPM_P2
2021/03/03 00:01:58;;;;;;;17.05;3.50;;;;;;;;;;5032698;28;20103;-60
2021/03/03 00:04:27;;;;;;;12.75;3.92;;;;;;;;;;5026197;28;20465;-58
2021/03/03 00:06:53;;;;;;;17.10;4.10;;;;;;;;;;5007862;28;20085;-60
2021/03/03 00:09:19;;;;;;;11.98;4.10;;;;;;;;;;5003535;28;20706;-58
2021/03/03 00:11:45;;;;;;;16.77;4.00;;;;;;;;;;5019387;28;20040;-59
2021/03/03 00:14:11;;;;;;;16.85;4.47;;;;;;;;;;5020986;28;20228;-57
2021/03/03 00:16:37;;;;;;;8.55;1.77;;;;;;;;;;5004322;28;20048;-60
2021/03/03 00:19:03;;;;;;;75.15;49.38;;;;;;;;;;5020496;28;20036;-60
2021/03/03 00:21:29;;;;;;;25.33;15.70;;;;;;;;;;5021262;28;20041;-59
2021/03/03 00:23:55;;;;;;;5.55;1.52;;;;;;;;;;5022287;28;20234;-59
2021/03/03 00:26:20;;;;;;;8.93;2.00;;;;;;;;;;5021475;28;20044;-60
2021/03/03 00:28:46;;;;;;;5.20;1.40;;;;;;;;;;5022828;28;20050;-58
2021/03/03 00:31:13;;;;;;;7.13;2.47;;;;;;;;;;5021034;28;20375;-57
2021/03/03 00:33:39;;;;;;;5.43;1.63;;;;;;;;;;5020826;28;20040;-58
2021/03/03 00:36:05;;;;;;;6.75;2.17;;;;;;;;;;5023106;28;20548;-56
2021/03/03 00:38:31;;;;;;;6.53;2.00;;;;;;;;;;5019795;28;20044;-59
2021/03/03 00:40:56;;;;;;;6.22;2.63;;;;;;;;;;5021202;28;20064;-58
2021/03/03 00:43:22;;;;;;;8.20;1.55;;;;;;;;;;5020312;28;20044;-58
2021/03/03 00:45:48;;;;;;;6.97;1.58;;;;;;;;;;5022552;28;20509;-58
2021/03/03 00:48:14;;;;;;;10.88;1.67;;;;;;;;;;5021044;28;20197;-57
2021/03/03 00:50:40;;;;;;;8.32;2.38;;;;;;;;;;5019740;28;20057;-58
2021/03/03 00:53:10;;;;;;;5.15;1.30;;;;;;;;;;5010869;28;20411;-59
2021/03/03 00:55:35;;;;;;;9.05;1.60;;;;;;;;;;5019732;28;20095;-58
2021/03/03 00:58:01;;;;;;;7.82;2.25;;;;;;;;;;5020331;28;20068;-59
2021/03/03 01:00:27;;;;;;;7.63;1.60;;;;;;;;;;5019497;28;20091;-57
2021/03/03 01:02:53;;;;;;;7.10;1.95;;;;;;;;;;5020634;28;20144;-58
2021/03/03 01:05:19;;;;;;;6.22;2.08;;;;;;;;;;5023148;28;20051;-58
2021/03/03 01:07:45;;;;;;;7.57;2.33;;;;;;;;;;5026704;28;20482;-57
2021/03/03 01:10:11;;;;;;;8.20;1.73;;;;;;;;;;5024937;28;20950;-58
2021/03/03 01:12:37;;;;;;;5.32;1.30;;;;;;;;;;5024997;28;21561;-57
2021/03/03 01:15:06;;;;;;;4.07;0.80;;;;;;;;;;5025888;28;20047;-55
2021/03/03 01:17:34;;;;;;;3.83;1.00;;;;;;;;;;5012972;28;20045;-56
2021/03/03 01:20:00;;;;;;;2.75;0.80;;;;;;;;;;5023845;28;20037;-58
2021/03/03 01:22:26;;;;;;;3.40;0.93;;;;;;;;;;5006069;28;20132;-58
2021/03/03 01:24:52;;;;;;;6.07;2.25;;;;;;;;;;5025079;28;20037;-56
2021/03/03 01:27:18;;;;;;;6.43;1.02;;;;;;;;;;5023780;28;20412;-57
2021/03/03 01:29:44;;;;;;;3.50;1.00;;;;;;;;;;5023869;28;20231;-57
2021/03/03 01:32:10;;;;;;;5.90;1.10;;;;;;;;;;5008215;28;20045;-58
2021/03/03 01:34:36;;;;;;;5.07;1.10;;;;;;;;;;5023693;28;20056;-58
2021/03/03 01:37:02;;;;;;;8.63;1.85;;;;;;;;;;4996715;28;20103;-59
2021/03/03 01:39:28;;;;;;;5.80;1.23;;;;;;;;;;5030615;28;20033;-57
2021/03/03 01:41:54;;;;;;;6.28;1.25;;;;;;;;;;5032729;28;20102;-58
2021/03/03 01:44:20;;;;;;;3.13;1.00;;;;;;;;;;5030862;28;20042;-58
2021/03/03 01:46:46;;;;;;;5.32;1.10;;;;;;;;;;5029874;28;20106;-58
2021/03/03 01:49:12;;;;;;;4.90;1.10;;;;;;;;;;5030071;28;20098;-58
2021/03/03 01:51:37;;;;;;;4.63;1.27;;;;;;;;;;5030339;28;21414;-58
2021/03/03 01:54:03;;;;;;;4.50;0.98;;;;;;;;;;5032375;28;20070;-58
2021/03/03 01:56:29;;;;;;;3.53;1.00;;;;;;;;;;5031994;28;20628;-56
2021/03/03 01:58:55;;;;;;;4.78;1.10;;;;;;;;;;5029986;28;20128;-58
2021/03/03 02:01:21;;;;;;;8.10;1.10;;;;;;;;;;5029897;28;20041;-60
2021/03/03 02:03:48;;;;;;;6.88;1.52;;;;;;;;;;5031634;28;20489;-57
2021/03/03 02:06:17;;;;;;;5.30;1.20;;;;;;;;;;5031047;28;20037;-58
2021/03/03 02:08:44;;;;;;;7.82;1.15;;;;;;;;;;5032066;28;20143;-58
2021/03/03 02:11:24;;;;;;;5.20;1.20;;;;;;;;;;5030675;28;20047;-58
2021/03/03 02:13:51;;;;;;;8.20;2.35;;;;;;;;;;5013705;28;20398;-59
2021/03/03 02:16:18;;;;;;;9.57;1.35;;;;;;;;;;5032291;28;20037;-58
2021/03/03 02:18:44;;;;;;;5.55;1.40;;;;;;;;;;5030707;28;20041;-59
2021/03/03 02:21:26;;;;;;;9.55;1.65;;;;;;;;;;5030554;28;20489;-57
2021/03/03 02:23:54;;;;;;;6.07;1.30;;;;;;;;;;5030843;28;20036;-57
2021/03/03 02:26:33;;;;;;;5.88;1.00;;;;;;;;;;5029083;28;20045;-57
2021/03/03 02:29:00;;;;;;;5.95;1.02;;;;;;;;;;5014017;28;20052;-58
2021/03/03 02:31:26;;;;;;;3.55;1.05;;;;;;;;;;5030515;28;20670;-54
2021/03/03 02:33:53;;;;;;;4.53;0.80;;;;;;;;;;5031833;28;20044;-57
2021/03/03 02:36:19;;;;;;;6.78;1.20;;;;;;;;;;5033286;28;20124;-58
2021/03/03 02:38:45;;;;;;;4.18;1.08;;;;;;;;;;5032789;28;20112;-58
2021/03/03 02:41:11;;;;;;;5.18;1.10;;;;;;;;;;5010155;28;20098;-59
2021/03/03 02:43:38;;;;;;;3.35;1.00;;;;;;;;;;5032106;28;20324;-56
2021/03/03 02:46:07;;;;;;;5.28;1.60;;;;;;;;;;5033197;28;20064;-58
2021/03/03 02:48:33;;;;;;;4.60;1.33;;;;;;;;;;5032993;28;20163;-58
2021/03/03 02:50:59;;;;;;;3.92;1.40;;;;;;;;;;5036172;28;20127;-58
2021/03/03 02:53:24;;;;;;;6.88;1.42;;;;;;;;;;5016896;28;20383;-58
2021/03/03 02:55:50;;;;;;;5.85;1.50;;;;;;;;;;5034500;28;20124;-57
2021/03/03 02:58:16;;;;;;;3.47;1.13;;;;;;;;;;5030873;28;20041;-58
2021/03/03 03:00:42;;;;;;;2.80;1.00;;;;;;;;;;5031350;28;20032;-58
2021/03/03 03:03:26;;;;;;;3.28;0.93;;;;;;;;;;5031039;28;20037;-58
2021/03/03 03:06:01;;;;;;;3.13;0.95;;;;;;;;;;5033045;28;20115;-58
2021/03/03 03:08:29;;;;;;;3.80;1.05;;;;;;;;;;5031838;28;20055;-59
2021/03/03 03:10:59;;;;;;;4.05;1.00;;;;;;;;;;5030301;28;20053;-59
2021/03/03 03:13:27;;;;;;;4.60;1.40;;;;;;;;;;5022536;28;20669;-59
2021/03/03 03:15:54;;;;;;;4.93;0.98;;;;;;;;;;5033646;28;22026;-58
2021/03/03 03:18:24;;;;;;;4.05;0.90;;;;;;;;;;5030466;28;20149;-58
2021/03/03 03:20:50;;;;;;;4.60;1.10;;;;;;;;;;5031463;28;20041;-59
2021/03/03 03:23:18;;;;;;;4.00;1.00;;;;;;;;;;5031595;28;20118;-58
2021/03/03 03:25:46;;;;;;;5.32;1.02;;;;;;;;;;5032797;28;20658;-59
2021/03/03 03:28:12;;;;;;;5.63;1.13;;;;;;;;;;5031477;28;20680;-59
2021/03/03 03:30:39;;;;;;;2.65;0.90;;;;;;;;;;5030426;28;20040;-59
2021/03/03 03:33:05;;;;;;;7.05;1.10;;;;;;;;;;5030877;28;20048;-59
2021/03/03 03:35:31;;;;;;;3.55;0.88;;;;;;;;;;5032901;28;20452;-59
2021/03/03 03:37:57;;;;;;;5.25;1.00;;;;;;;;;;5032634;28;20060;-59
2021/03/03 03:40:25;;;;;;;7.32;1.05;;;;;;;;;;5030610;28;20693;-58
2021/03/03 03:42:54;;;;;;;4.63;0.95;;;;;;;;;;5030245;28;20037;-58
2021/03/03 03:45:22;;;;;;;3.17;0.93;;;;;;;;;;5029559;28;20062;-58
2021/03/03 03:47:48;;;;;;;3.10;1.10;;;;;;;;;;5028798;28;20063;-58
2021/03/03 03:50:14;;;;;;;5.07;1.10;;;;;;;;;;5019021;28;20375;-58
2021/03/03 03:52:41;;;;;;;8.30;0.98;;;;;;;;;;5013901;28;20113;-59
2021/03/03 03:55:07;;;;;;;2.55;0.82;;;;;;;;;;5012031;28;20040;-58
2021/03/03 03:57:52;;;;;;;5.95;1.08;;;;;;;;;;5009999;28;20137;-55
2021/03/03 04:00:19;;;;;;;6.10;1.02;;;;;;;;;;5010977;28;20069;-58
2021/03/03 04:02:45;;;;;;;4.85;0.90;;;;;;;;;;5014355;28;20095;-57
2021/03/03 04:05:12;;;;;;;8.85;1.30;;;;;;;;;;5015858;28;20801;-58
2021/03/03 04:07:38;;;;;;;4.47;0.98;;;;;;;;;;5016472;28;20452;-59
2021/03/03 04:10:05;;;;;;;4.45;1.10;;;;;;;;;;5011244;28;20045;-56
2021/03/03 04:12:31;;;;;;;3.78;0.90;;;;;;;;;;5011499;28;20053;-59
2021/03/03 04:14:57;;;;;;;4.75;0.95;;;;;;;;;;5011706;28;20560;-60
2021/03/03 04:17:22;;;;;;;5.53;1.10;;;;;;;;;;5010190;28;20033;-60
2021/03/03 04:19:48;;;;;;;2.72;0.80;;;;;;;;;;5011586;28;20060;-60
2021/03/03 04:22:14;;;;;;;3.70;1.00;;;;;;;;;;5011987;28;20501;-58
2021/03/03 04:24:40;;;;;;;4.50;1.00;;;;;;;;;;5010457;28;21133;-57
2021/03/03 04:27:06;;;;;;;3.08;0.88;;;;;;;;;;5011268;28;20864;-57
2021/03/03 04:29:32;;;;;;;2.95;0.88;;;;;;;;;;5013194;28;21122;-59
2021/03/03 04:31:58;;;;;;;5.78;0.90;;;;;;;;;;5012532;28;20054;-58
2021/03/03 04:34:23;;;;;;;3.28;0.93;;;;;;;;;;5013798;28;20038;-59
2021/03/03 04:36:49;;;;;;;5.72;0.90;;;;;;;;;;5018382;28;20052;-59
2021/03/03 04:39:15;;;;;;;4.60;1.27;;;;;;;;;;5015642;28;20046;-59
2021/03/03 04:41:41;;;;;;;7.72;1.25;;;;;;;;;;5014196;28;20034;-60
2021/03/03 04:44:07;;;;;;;5.10;1.48;;;;;;;;;;5012379;28;20345;-59
2021/03/03 04:46:33;;;;;;;8.48;1.17;;;;;;;;;;5010357;28;20029;-60
2021/03/03 04:48:59;;;;;;;3.30;0.90;;;;;;;;;;5009130;28;20520;-59
2021/03/03 04:51:25;;;;;;;4.45;1.13;;;;;;;;;;5004908;28;20112;-59
2021/03/03 04:53:51;;;;;;;4.60;1.00;;;;;;;;;;5005093;28;20038;-59
2021/03/03 04:56:17;;;;;;;3.10;0.90;;;;;;;;;;4991243;28;20049;-58
2021/03/03 04:58:43;;;;;;;4.35;0.90;;;;;;;;;;5006473;28;20041;-60
2021/03/03 05:01:09;;;;;;;3.33;0.95;;;;;;;;;;5005196;28;20528;-60
2021/03/03 05:03:35;;;;;;;4.07;1.02;;;;;;;;;;5005431;28;20064;-59
2021/03/03 05:06:01;;;;;;;5.18;1.10;;;;;;;;;;5005765;28;20061;-59
2021/03/03 05:08:27;;;;;;;3.60;0.70;;;;;;;;;;5004876;28;20475;-60
2021/03/03 05:10:52;;;;;;;3.78;1.00;;;;;;;;;;5006074;28;20498;-60
2021/03/03 05:13:18;;;;;;;4.35;1.00;;;;;;;;;;5006999;28;20060;-60
2021/03/03 05:15:44;;;;;;;6.30;1.30;;;;;;;;;;5009967;28;20124;-60
2021/03/03 05:18:10;;;;;;;4.85;1.25;;;;;;;;;;5010905;28;20045;-60
2021/03/03 05:20:37;;;;;;;6.07;1.27;;;;;;;;;;5008590;28;20198;-59
2021/03/03 05:23:03;;;;;;;3.80;1.10;;;;;;;;;;5010741;28;20041;-60
2021/03/03 05:25:29;;;;;;;5.38;1.08;;;;;;;;;;5008642;28;20475;-59
2021/03/03 05:27:56;;;;;;;5.80;1.40;;;;;;;;;;5008933;28;20041;-57
2021/03/03 05:30:22;;;;;;;3.70;1.50;;;;;;;;;;5009207;28;20920;-60
2021/03/03 05:32:48;;;;;;;8.52;1.40;;;;;;;;;;5012292;28;21904;-58
2021/03/03 05:35:14;;;;;;;11.60;1.50;;;;;;;;;;5009855;28;20041;-58
2021/03/03 05:37:40;;;;;;;9.65;2.00;;;;;;;;;;5010202;28;20088;-59
2021/03/03 05:40:06;;;;;;;13.02;2.47;;;;;;;;;;5008917;28;20048;-59
2021/03/03 05:42:34;;;;;;;8.35;2.33;;;;;;;;;;5008407;28;20034;-57
2021/03/03 05:45:00;;;;;;;6.50;2.40;;;;;;;;;;5010682;28;20045;-59
2021/03/03 05:47:26;;;;;;;12.85;2.33;;;;;;;;;;5011081;28;20041;-59
2021/03/03 05:49:55;;;;;;;7.65;1.88;;;;;;;;;;5018135;28;20375;-59
2021/03/03 05:52:22;;;;;;;6.00;1.80;;;;;;;;;;5030296;28;20045;-59
2021/03/03 05:54:48;;;;;;;7.13;1.65;;;;;;;;;;5031729;28;20051;-59
2021/03/03 05:57:15;;;;;;;5.18;1.40;;;;;;;;;;5030494;28;20517;-59
2021/03/03 05:59:41;;;;;;;4.65;1.00;;;;;;;;;;5029852;28;20041;-56
2021/03/03 06:02:09;;;;;;;4.65;1.30;;;;;;;;;;5031681;28;20037;-58
2021/03/03 06:04:35;;;;;;;3.47;0.98;;;;;;;;;;5028661;28;20132;-57
2021/03/03 06:07:01;;;;;;;3.60;0.90;;;;;;;;;;5028529;28;20040;-56
2021/03/03 06:09:27;;;;;;;3.75;0.88;;;;;;;;;;5027382;28;20393;-59
2021/03/03 06:11:55;;;;;;;3.70;1.17;;;;;;;;;;5029029;28;20095;-59
2021/03/03 06:14:21;;;;;;;6.18;1.10;;;;;;;;;;5027462;28;20041;-58
2021/03/03 06:16:47;;;;;;;2.65;0.82;;;;;;;;;;5030891;28;20041;-58
2021/03/03 06:19:13;;;;;;;2.65;0.80;;;;;;;;;;5030571;28;20047;-58
2021/03/03 06:21:39;;;;;;;3.10;0.85;;;;;;;;;;5029301;28;20132;-59
2021/03/03 06:24:06;;;;;;;3.85;0.73;;;;;;;;;;5029733;28;20120;-59
2021/03/03 06:26:32;;;;;;;3.10;1.20;;;;;;;;;;5030857;28;20033;-58
2021/03/03 06:28:59;;;;;;;2.17;0.70;;;;;;;;;;5029706;28;20516;-58
2021/03/03 06:31:26;;;;;;;2.88;0.80;;;;;;;;;;5028517;28;20041;-59
2021/03/03 06:33:52;;;;;;;2.67;0.70;;;;;;;;;;5028346;28;20414;-58
2021/03/03 06:36:19;;;;;;;3.35;0.80;;;;;;;;;;5029217;28;20041;-57
2021/03/03 06:38:45;;;;;;;3.22;1.00;;;;;;;;;;5028967;28;20033;-57
2021/03/03 06:41:11;;;;;;;3.15;0.70;;;;;;;;;;5027203;28;20041;-59
2021/03/03 06:43:37;;;;;;;3.40;0.93;;;;;;;;;;5030435;28;20064;-59
2021/03/03 06:46:17;;;;;;;3.00;0.90;;;;;;;;;;5029569;28;20167;-59
2021/03/03 06:48:43;;;;;;;4.65;1.00;;;;;;;;;;5024958;28;20038;-60
2021/03/03 06:51:26;;;;;;;5.80;0.73;;;;;;;;;;5028870;28;20511;-59
2021/03/03 06:53:53;;;;;;;2.90;0.95;;;;;;;;;;5029139;28;20049;-59
2021/03/03 06:56:31;;;;;;;5.20;0.90;;;;;;;;;;5028537;28;20029;-59
2021/03/03 06:59:14;;;;;;;3.83;1.00;;;;;;;;;;5029593;28;20052;-59
2021/03/03 07:01:44;;;;;;;4.75;0.90;;;;;;;;;;5030369;28;20503;-59
2021/03/03 07:04:28;;;;;;;4.03;0.88;;;;;;;;;;5026976;28;20535;-59
2021/03/03 07:06:55;;;;;;;6.05;1.20;;;;;;;;;;5022460;28;20108;-58
2021/03/03 07:09:22;;;;;;;2.90;0.90;;;;;;;;;;5027550;28;20064;-59
2021/03/03 07:11:48;;;;;;;2.80;0.90;;;;;;;;;;5027874;28;20053;-56
2021/03/03 07:14:18;;;;;;;2.72;1.13;;;;;;;;;;5028702;28;20939;-59
2021/03/03 07:17:03;;;;;;;2.88;0.95;;;;;;;;;;5026748;28;21530;-59
2021/03/03 07:19:29;;;;;;;3.80;1.05;;;;;;;;;;5026902;28;20037;-59
2021/03/03 07:21:55;;;;;;;3.13;1.10;;;;;;;;;;5027661;28;20045;-57
2021/03/03 07:24:21;;;;;;;5.97;1.20;;;;;;;;;;5027649;28;20041;-59
2021/03/03 07:26:47;;;;;;;4.00;1.00;;;;;;;;;;5028538;28;20575;-59
2021/03/03 07:29:13;;;;;;;7.25;1.02;;;;;;;;;;5027681;28;20079;-58
2021/03/03 07:31:39;;;;;;;7.30;0.82;;;;;;;;;;5026982;28;20125;-59
2021/03/03 07:34:06;;;;;;;2.92;1.02;;;;;;;;;;5026872;28;20091;-59
2021/03/03 07:36:33;;;;;;;5.32;1.15;;;;;;;;;;5028989;28;20041;-59
2021/03/03 07:38:59;;;;;;;3.22;0.82;;;;;;;;;;5027226;28;20300;-59
2021/03/03 07:41:26;;;;;;;7.00;1.38;;;;;;;;;;5027539;28;20064;-60
2021/03/03 07:43:54;;;;;;;3.30;0.90;;;;;;;;;;5029140;28;20189;-57
2021/03/03 07:46:21;;;;;;;3.35;0.88;;;;;;;;;;5027885;28;20778;-58
2021/03/03 07:48:49;;;;;;;3.95;0.90;;;;;;;;;;5028480;28;20041;-58
2021/03/03 07:51:16;;;;;;;4.28;1.08;;;;;;;;;;5026082;28;20041;-59
2021/03/03 07:53:42;;;;;;;4.75;1.15;;;;;;;;;;5026258;28;20048;-58
2021/03/03 07:56:09;;;;;;;2.92;1.08;;;;;;;;;;5027311;28;20055;-58
2021/03/03 07:58:38;;;;;;;3.95;1.08;;;;;;;;;;5026521;28;20037;-58
2021/03/03 08:01:04;;;;;;;3.53;1.00;;;;;;;;;;5028872;28;20532;-58
2021/03/03 08:03:44;;;;;;;6.95;1.13;;;;;;;;;;5026451;28;20380;-58
2021/03/03 08:06:28;;;;;;;5.43;1.30;;;;;;;;;;5027812;28;20041;-58
2021/03/03 08:09:07;;;;;;;3.85;0.90;;;;;;;;;;5027157;28;20123;-58
2021/03/03 08:11:33;;;;;;;6.93;1.30;;;;;;;;;;5025453;28;20434;-58
2021/03/03 08:13:59;;;;;;;5.10;1.10;;;;;;;;;;5026779;28;20060;-59
2021/03/03 08:16:25;;;;;;;4.30;0.95;;;;;;;;;;5026111;28;20041;-59
2021/03/03 08:18:53;;;;;;;7.75;1.00;;;;;;;;;;5027008;28;20493;-58
2021/03/03 08:21:19;;;;;;;5.82;1.10;;;;;;;;;;5026586;28;20041;-58
2021/03/03 08:23:48;;;;;;;4.60;1.20;;;;;;;;;;5026875;28;21297;-58
2021/03/03 08:26:17;;;;;;;3.92;1.08;;;;;;;;;;5028247;28;20055;-57
2021/03/03 08:28:44;;;;;;;5.10;1.20;;;;;;;;;;5026102;28;20163;-58
2021/03/03 08:31:10;;;;;;;3.90;0.95;;;;;;;;;;5025267;28;20040;-58
2021/03/03 08:33:42;;;;;;;2.95;0.90;;;;;;;;;;5025361;28;20041;-58
2021/03/03 08:36:11;;;;;;;4.32;1.00;;;;;;;;;;5026582;28;20072;-58
2021/03/03 08:38:37;;;;;;;2.40;0.73;;;;;;;;;;5025405;28;20036;-58
2021/03/03 08:41:32;;;;;;;7.25;1.10;;;;;;;;;;5025840;28;20036;-59
2021/03/03 08:44:12;;;;;;;4.38;1.20;;;;;;;;;;5007786;28;20028;-57
2021/03/03 08:46:41;;;;;;;5.22;1.10;;;;;;;;;;5024354;28;20135;-57
2021/03/03 08:49:07;;;;;;;6.80;1.08;;;;;;;;;;5024492;28;20049;-56
2021/03/03 08:51:34;;;;;;;5.00;1.40;;;;;;;;;;5025237;28;20107;-58
2021/03/03 08:54:10;;;;;;;9.13;1.55;;;;;;;;;;5026447;28;20106;-59
2021/03/03 08:56:43;;;;;;;6.15;1.52;;;;;;;;;;5026682;28;20044;-58
2021/03/03 08:59:12;;;;;;;10.85;1.30;;;;;;;;;;5024255;28;20502;-59
2021/03/03 09:01:54;;;;;;;5.57;1.40;;;;;;;;;;5026802;28;20050;-58
2021/03/03 09:04:23;;;;;;;6.85;1.92;;;;;;;;;;5027178;28;20725;-58
2021/03/03 09:06:50;;;;;;;3.13;1.15;;;;;;;;;;5027978;28;20045;-58
2021/03/03 09:09:17;;;;;;;6.03;1.40;;;;;;;;;;5004878;28;20147;-58
2021/03/03 09:11:43;;;;;;;4.28;1.20;;;;;;;;;;5028391;28;20073;-57
2021/03/03 09:14:09;;;;;;;2.65;0.90;;;;;;;;;;5027512;28;22003;-57
2021/03/03 09:16:50;;;;;;;3.17;1.10;;;;;;;;;;5027774;28;20087;-56
2021/03/03 09:19:16;;;;;;;6.35;1.38;;;;;;;;;;5025629;28;20029;-56
2021/03/03 09:21:42;;;;;;;3.90;1.20;;;;;;;;;;5026510;28;20184;-59
2021/03/03 09:24:12;;;;;;;3.28;0.95;;;;;;;;;;5024923;28;20120;-58
2021/03/03 09:26:39;;;;;;;6.97;1.45;;;;;;;;;;5026177;28;20088;-54
2021/03/03 09:29:05;;;;;;;9.00;1.45;;;;;;;;;;5030553;28;20124;-58
2021/03/03 09:31:32;;;;;;;7.10;1.20;;;;;;;;;;5029752;28;20041;-56
2021/03/03 09:33:58;;;;;;;3.58;1.00;;;;;;;;;;5031252;28;20037;-57
2021/03/03 09:36:24;;;;;;;4.65;0.90;;;;;;;;;;5029974;28;20040;-57
2021/03/03 09:38:54;;;;;;;3.90;1.30;;;;;;;;;;5029391;28;20068;-58
2021/03/03 09:41:20;;;;;;;3.17;0.93;;;;;;;;;;5028565;28;20227;-58
2021/03/03 09:43:58;;;;;;;5.57;1.10;;;;;;;;;;5029730;28;20135;-57
2021/03/03 09:46:24;;;;;;;3.17;1.05;;;;;;;;;;5029890;28;20367;-58
2021/03/03 09:48:50;;;;;;;4.75;0.90;;;;;;;;;;5031450;28;20041;-56
2021/03/03 09:51:16;;;;;;;4.13;1.00;;;;;;;;;;5030909;28;20529;-57
2021/03/03 09:53:54;;;;;;;3.85;0.80;;;;;;;;;;5029824;28;20049;-57
2021/03/03 09:56:32;;;;;;;4.28;1.10;;;;;;;;;;5029990;28;20562;-57
2021/03/03 09:58:58;;;;;;;3.25;1.00;;;;;;;;;;5030494;28;20029;-57
2021/03/03 10:01:25;;;;;;;3.00;0.82;;;;;;;;;;5029922;28;20038;-58
2021/03/03 10:03:53;;;;;;;4.43;1.13;;;;;;;;;;5008474;28;20056;-57
2021/03/03 10:06:19;;;;;;;5.20;1.05;;;;;;;;;;5028896;28;20124;-57
2021/03/03 10:08:45;;;;;;;4.97;1.40;;;;;;;;;;5028880;28;20033;-59
2021/03/03 10:11:11;;;;;;;4.05;1.25;;;;;;;;;;5030774;28;20152;-57
2021/03/03 10:13:41;;;;;;;5.03;1.20;;;;;;;;;;5029546;28;24430;-56
2021/03/03 10:16:19;;;;;;;3.83;1.23;;;;;;;;;;5030252;28;20639;-58
2021/03/03 10:19:05;;;;;;;3.47;1.10;;;;;;;;;;5026863;28;20044;-57
2021/03/03 10:21:32;;;;;;;3.58;0.90;;;;;;;;;;5029045;28;20184;-58
2021/03/03 10:23:58;;;;;;;5.88;1.10;;;;;;;;;;5033536;28;20049;-58
2021/03/03 10:26:40;;;;;;;5.05;1.10;;;;;;;;;;5032133;28;20034;-58
2021/03/03 10:29:07;;;;;;;3.08;1.05;;;;;;;;;;5034209;28;20106;-59
2021/03/03 10:31:32;;;;;;;4.13;0.95;;;;;;;;;;5034122;28;20584;-59
2021/03/03 10:34:08;;;;;;;5.75;0.90;;;;;;;;;;5032815;28;20049;-58
2021/03/03 10:36:38;;;;;;;2.65;0.80;;;;;;;;;;5034525;28;20818;-59
2021/03/03 10:39:04;;;;;;;5.10;1.02;;;;;;;;;;5033795;28;20562;-58
2021/03/03 10:41:33;;;;;;;6.45;1.10;;;;;;;;;;5015577;28;20048;-59
2021/03/03 10:44:06;;;;;;;3.50;1.20;;;;;;;;;;5034286;28;20045;-60
2021/03/03 10:46:32;;;;;;;5.82;1.48;;;;;;;;;;5034516;28;20104;-59
2021/03/03 10:49:14;;;;;;;3.70;1.17;;;;;;;;;;5016931;28;20213;-59
2021/03/03 10:51:40;;;;;;;5.70;1.20;;;;;;;;;;5035015;28;20116;-59
2021/03/03 10:54:09;;;;;;;3.95;1.02;;;;;;;;;;5034804;28;20840;-59
2021/03/03 10:56:37;;;;;;;2.85;0.95;;;;;;;;;;5033967;28;20963;-58
2021/03/03 10:59:10;;;;;;;5.20;1.13;;;;;;;;;;5032712;28;20110;-59
2021/03/03 11:01:58;;;;;;;2.92;0.85;;;;;;;;;;5033829;28;20052;-59
2021/03/03 11:04:46;;;;;;;5.03;1.20;;;;;;;;;;5034252;28;21990;-59
2021/03/03 11:07:12;;;;;;;2.58;0.98;;;;;;;;;;5033725;28;20045;-58
2021/03/03 11:09:38;;;;;;;3.55;1.20;;;;;;;;;;5033582;28;20164;-58
2021/03/03 11:12:04;;;;;;;4.95;0.90;;;;;;;;;;5033056;28;20048;-55
2021/03/03 11:14:31;;;;;;;5.40;1.10;;;;;;;;;;5033033;28;20132;-58
2021/03/03 11:16:57;;;;;;;3.72;1.27;;;;;;;;;;5033224;28;20033;-58
2021/03/03 11:19:24;;;;;;;2.55;0.98;;;;;;;;;;5030563;28;20037;-57
2021/03/03 11:21:51;;;;;;;3.70;1.20;;;;;;;;;;5033959;28;20059;-59
2021/03/03 11:24:17;;;;;;;4.88;1.15;;;;;;;;;;5031613;28;20048;-60
2021/03/03 11:26:44;;;;;;;5.55;0.95;;;;;;;;;;5034154;28;20120;-60
2021/03/03 11:29:10;;;;;;;5.20;1.40;;;;;;;;;;5034404;28;20033;-60
2021/03/03 11:31:36;;;;;;;5.38;0.93;;;;;;;;;;5009056;28;20163;-60
2021/03/03 11:34:02;;;;;;;4.68;1.13;;;;;;;;;;5033531;28;20051;-58
2021/03/03 11:36:29;;;;;;;4.32;1.00;;;;;;;;;;5033995;28;20044;-58
2021/03/03 11:38:55;;;;;;;5.32;1.02;;;;;;;;;;5032405;28;20494;-58
2021/03/03 11:41:21;;;;;;;7.97;1.30;;;;;;;;;;5032745;28;20063;-58
2021/03/03 11:43:47;;;;;;;3.65;1.20;;;;;;;;;;5032958;28;20079;-59
2021/03/03 11:46:13;;;;;;;8.77;1.50;;;;;;;;;;5034290;28;20037;-59
2021/03/03 11:48:39;;;;;;;4.50;1.27;;;;;;;;;;5032391;28;20761;-59
2021/03/03 11:51:06;;;;;;;3.80;1.20;;;;;;;;;;5034676;28;20049;-59
2021/03/03 11:53:32;;;;;;;3.60;1.10;;;;;;;;;;5034008;28;20177;-58
2021/03/03 11:55:58;;;;;;;4.25;1.20;;;;;;;;;;5033257;28;20701;-58
2021/03/03 11:58:23;;;;;;;7.90;1.40;;;;;;;;;;5033924;28;20041;-57
2021/03/03 12:00:49;;;;;;;4.40;1.58;;;;;;;;;;5033708;28;20722;-57
2021/03/03 12:03:15;;;;;;;6.53;1.20;;;;;;;;;;5033476;28;21027;-59
2021/03/03 12:05:41;;;;;;;3.92;1.15;;;;;;;;;;5035660;28;20064;-59
2021/03/03 12:08:07;;;;;;;3.80;1.10;;;;;;;;;;5034784;28;20041;-59
2021/03/03 12:10:34;;;;;;;4.65;1.05;;;;;;;;;;5032815;28;20033;-58
2021/03/03 12:13:00;;;;;;;4.15;1.23;;;;;;;;;;5034941;28;20142;-58
2021/03/03 12:15:26;;;;;;;5.05;1.33;;;;;;;;;;5033899;28;22089;-56
2021/03/03 12:17:52;;;;;;;5.85;1.52;;;;;;;;;;5032131;28;20060;-58
2021/03/03 12:20:18;;;;;;;3.58;1.10;;;;;;;;;;5032727;28;20457;-58
2021/03/03 12:22:44;;;;;;;6.60;1.20;;;;;;;;;;5032312;28;20270;-58
2021/03/03 12:25:10;;;;;;;4.38;1.00;;;;;;;;;;5033407;28;20042;-58
2021/03/03 12:27:37;;;;;;;4.32;1.27;;;;;;;;;;5030831;28;20041;-58
2021/03/03 12:30:03;;;;;;;9.30;1.63;;;;;;;;;;5032860;28;20049;-58
2021/03/03 12:32:29;;;;;;;5.57;1.67;;;;;;;;;;5032467;28;20049;-59
2021/03/03 12:34:55;;;;;;;8.00;1.30;;;;;;;;;;5033959;28;20401;-59
2021/03/03 12:37:20;;;;;;;6.00;1.55;;;;;;;;;;5031545;28;20041;-58
2021/03/03 12:39:46;;;;;;;5.53;1.40;;;;;;;;;;5032774;28;20041;-59
2021/03/03 12:42:12;;;;;;;9.38;1.40;;;;;;;;;;5032227;28;20134;-59
2021/03/03 12:44:39;;;;;;;4.38;1.20;;;;;;;;;;5031430;28;20045;-58
2021/03/03 12:47:05;;;;;;;8.27;1.40;;;;;;;;;;5033107;28;20037;-59
2021/03/03 12:49:31;;;;;;;6.35;1.40;;;;;;;;;;5026673;28;20053;-58
2021/03/03 12:51:57;;;;;;;6.53;1.27;;;;;;;;;;5015920;28;20065;-58
2021/03/03 12:54:23;;;;;;;5.03;1.40;;;;;;;;;;5016560;28;20041;-59
2021/03/03 12:56:48;;;;;;;9.98;1.40;;;;;;;;;;5016016;28;20048;-58
2021/03/03 12:59:14;;;;;;;4.90;1.13;;;;;;;;;;5016884;28;20030;-57
2021/03/03 13:01:40;;;;;;;4.68;1.15;;;;;;;;;;5017270;28;20042;-59
2021/03/03 13:04:06;;;;;;;7.50;1.30;;;;;;;;;;5022382;28;20498;-57
2021/03/03 13:06:32;;;;;;;5.53;1.10;;;;;;;;;;5019893;28;20073;-58
2021/03/03 13:08:58;;;;;;;5.32;1.35;;;;;;;;;;5021761;28;20044;-56
2021/03/03 13:11:25;;;;;;;7.82;1.33;;;;;;;;;;5019802;28;20143;-58
2021/03/03 13:13:52;;;;;;;7.18;1.40;;;;;;;;;;5020081;28;20057;-59
2021/03/03 13:16:18;;;;;;;11.15;1.48;;;;;;;;;;5020784;28;20037;-57
2021/03/03 13:18:43;;;;;;;7.40;1.58;;;;;;;;;;5019980;28;20407;-57
2021/03/03 13:21:12;;;;;;;4.50;1.88;;;;;;;;;;5020090;28;20072;-56
2021/03/03 13:23:38;;;;;;;18.38;1.98;;;;;;;;;;5020238;28;20056;-58
2021/03/03 13:26:04;;;;;;;7.90;2.10;;;;;;;;;;5022702;28;20492;-57
2021/03/03 13:28:30;;;;;;;9.90;2.30;;;;;;;;;;5017789;28;20480;-55
2021/03/03 13:30:56;;;;;;;7.88;2.88;;;;;;;;;;5020636;28;20040;-57
2021/03/03 13:33:22;;;;;;;8.48;2.30;;;;;;;;;;5017559;28;20451;-56
2021/03/03 13:35:47;;;;;;;6.63;1.52;;;;;;;;;;5020077;28;20044;-56
2021/03/03 13:38:13;;;;;;;6.15;1.58;;;;;;;;;;5017277;28;20550;-57
2021/03/03 13:40:40;;;;;;;12.95;1.73;;;;;;;;;;5018732;28;20048;-58
2021/03/03 13:43:06;;;;;;;9.43;1.65;;;;;;;;;;5019027;28;20405;-57
2021/03/03 13:45:32;;;;;;;7.32;2.22;;;;;;;;;;5019005;28;20395;-56
2021/03/03 13:47:58;;;;;;;7.20;1.80;;;;;;;;;;5018417;28;20047;-58
2021/03/03 13:50:24;;;;;;;11.48;1.92;;;;;;;;;;5027933;28;20049;-58
2021/03/03 13:52:50;;;;;;;8.70;1.88;;;;;;;;;;5037418;28;20049;-58
2021/03/03 13:55:16;;;;;;;9.02;1.70;;;;;;;;;;5035366;28;20040;-57
2021/03/03 13:57:42;;;;;;;11.57;1.88;;;;;;;;;;5035120;28;20025;-57
2021/03/03 14:00:09;;;;;;;5.82;1.67;;;;;;;;;;5036536;28;20051;-55
2021/03/03 14:02:35;;;;;;;7.97;1.50;;;;;;;;;;5035971;28;20045;-56
2021/03/03 14:05:01;;;;;;;6.00;2.03;;;;;;;;;;5036033;28;20094;-56
2021/03/03 14:07:27;;;;;;;9.00;1.90;;;;;;;;;;5035358;28;20033;-56
2021/03/03 14:09:53;;;;;;;9.90;2.53;;;;;;;;;;5037732;28;20064;-56
2021/03/03 14:12:19;;;;;;;7.68;2.13;;;;;;;;;;5019689;28;20504;-55
2021/03/03 14:14:45;;;;;;;14.88;2.70;;;;;;;;;;5062878;28;20020;-53
2021/03/03 14:17:11;;;;;;;9.98;2.47;;;;;;;;;;5061142;28;20093;-54
2021/03/03 14:19:37;;;;;;;6.70;2.10;;;;;;;;;;5053726;28;20417;-56
2021/03/03 14:22:05;;;;;;;10.50;2.40;;;;;;;;;;5049926;28;20035;-56
2021/03/03 14:24:31;;;;;;;9.63;1.85;;;;;;;;;;5059429;28;20121;-57
2021/03/03 14:26:57;;;;;;;7.70;2.50;;;;;;;;;;5054974;28;20136;-56
2021/03/03 14:29:23;;;;;;;7.22;2.15;;;;;;;;;;5057470;28;20129;-55
2021/03/03 14:31:49;;;;;;;8.13;2.17;;;;;;;;;;5040868;28;20051;-57
2021/03/03 14:34:15;;;;;;;9.25;2.15;;;;;;;;;;5047855;28;20120;-56
2021/03/03 14:36:41;;;;;;;10.98;2.47;;;;;;;;;;5057353;28;20016;-57
2021/03/03 14:39:07;;;;;;;9.10;2.58;;;;;;;;;;5062084;28;20082;-57
2021/03/03 14:41:33;;;;;;;23.65;3.15;;;;;;;;;;5058391;28;20021;-58
2021/03/03 14:43:59;;;;;;;20.10;3.30;;;;;;;;;;5049196;28;20095;-55
2021/03/03 14:46:25;;;;;;;15.90;3.17;;;;;;;;;;5058857;28;20028;-60